createdAt,value
2022-11-13T00:01:20.374Z,18.1
2022-11-13T00:11:20.395Z,18.1
2022-11-13T00:21:20.409Z,18.1
2022-11-13T00:31:20.434Z,18.2
2022-11-13T00:41:20.414Z,18.1
2022-11-13T00:51:20.605Z,18.1
2022-11-13T01:01:20.400Z,18.1
2022-11-13T01:11:20.597Z,18.1
2022-11-13T01:21:20.374Z,18
2022-11-13T01:31:20.590Z,18.2
2022-11-13T01:41:23.297Z,18
2022-11-13T01:51:20.582Z,17.9
2022-11-13T02:01:20.610Z,17.9
2022-11-13T02:11:20.565Z,17.9
2022-11-13T02:21:20.577Z,17.8
2022-11-13T02:31:20.576Z,17.8
2022-11-13T02:41:20.596Z,17.8
2022-11-13T02:51:20.590Z,17.7
2022-11-13T03:01:20.671Z,17.7
2022-11-13T03:11:20.625Z,17.7
2022-11-13T03:21:20.627Z,17.7
2022-11-13T03:31:20.634Z,17.7
2022-11-13T03:41:20.603Z,17.7
2022-11-13T03:51:20.607Z,17.7
2022-11-13T04:01:20.648Z,17.6
2022-11-13T04:11:20.607Z,17.6
2022-11-13T04:21:20.607Z,17.6
2022-11-13T04:31:20.848Z,17.6
2022-11-13T04:41:20.589Z,17.6
2022-11-13T04:51:20.788Z,17.6
2022-11-13T05:01:20.607Z,17.5
2022-11-13T05:11:20.757Z,17.6
2022-11-13T05:21:20.595Z,17.5
2022-11-13T05:31:20.818Z,17.5
2022-11-13T05:41:20.617Z,17.5
2022-11-13T05:51:20.841Z,17.5
2022-11-13T06:01:20.598Z,17.5
2022-11-13T06:11:20.845Z,17.5
2022-11-13T06:21:20.799Z,17.6
2022-11-13T06:31:20.812Z,17.5
2022-11-13T06:41:20.824Z,18.2
2022-11-13T06:51:20.898Z,19.7
2022-11-13T07:01:20.859Z,19.4
2022-11-13T07:11:20.810Z,19
2022-11-13T07:21:20.803Z,18.7
2022-11-13T07:31:20.831Z,18.4
2022-11-13T07:41:20.842Z,18.3
2022-11-13T07:51:20.870Z,18.2
2022-11-13T08:01:20.854Z,20.2
2022-11-13T08:11:21.026Z,20.1
2022-11-13T08:21:20.843Z,19.6
2022-11-13T08:31:20.851Z,19.2
2022-11-13T08:41:20.842Z,19
2022-11-13T08:51:21.060Z,18.7
2022-11-13T09:01:20.853Z,18.6
2022-11-13T09:11:21.094Z,18.4
2022-11-13T09:21:20.883Z,18.4
2022-11-13T09:31:21.095Z,18.3
2022-11-13T09:41:20.876Z,18.2
2022-11-13T09:51:21.018Z,18.2
2022-11-13T10:01:20.937Z,18.1
2022-11-13T10:11:21.110Z,18.2
2022-11-13T10:21:20.871Z,18.2
2022-11-13T10:31:21.135Z,18.3
2022-11-13T10:41:20.920Z,18.3
2022-11-13T10:51:21.109Z,18.3
2022-11-13T11:01:21.122Z,18.3
2022-11-13T11:11:21.061Z,18.5
2022-11-13T11:41:21.220Z,18.8
2022-11-13T11:51:20.979Z,18.8
2022-11-13T12:01:21.185Z,18.9
2022-11-13T12:11:20.967Z,19
2022-11-13T12:21:21.307Z,19.1
2022-11-13T12:31:21.171Z,19.2
2022-11-13T12:41:21.214Z,18.9
2022-11-13T12:51:21.167Z,18.7
2022-11-13T13:01:21.257Z,18.4
2022-11-13T13:11:21.208Z,18.8
2022-11-13T13:21:21.187Z,18.7
2022-11-13T13:31:21.048Z,18.8
2022-11-13T13:41:21.260Z,18.9
2022-11-13T13:51:21.236Z,19
2022-11-13T14:01:21.377Z,18.9
2022-11-13T14:11:21.248Z,19.1
2022-11-13T14:21:21.302Z,19
2022-11-13T14:31:21.268Z,18.9
2022-11-13T14:41:21.240Z,19.2
2022-11-13T14:51:21.230Z,19.1
2022-11-13T15:01:21.246Z,19.1
2022-11-13T15:11:21.223Z,19.1
2022-11-13T15:21:21.865Z,19.1
2022-11-13T15:31:21.217Z,18.9
2022-11-13T15:41:21.435Z,18.8
2022-11-13T15:51:21.220Z,18.8
2022-11-13T16:01:21.559Z,18.7
2022-11-13T16:11:21.250Z,18.7
2022-11-13T16:21:21.432Z,18.7
2022-11-13T16:31:21.205Z,18.6
2022-11-13T16:41:21.429Z,18.6
2022-11-13T16:51:21.406Z,18.5
2022-11-13T17:01:21.442Z,18.4
2022-11-13T17:11:21.429Z,18.3
2022-11-13T17:21:21.416Z,18.4
2022-11-13T17:31:21.392Z,18.4
2022-11-13T17:41:21.409Z,18.4
2022-11-13T17:51:21.388Z,18.3
2022-11-13T18:01:21.691Z,18.3
2022-11-13T18:11:21.383Z,18.2
2022-11-13T18:21:23.528Z,18.3
2022-11-13T18:31:21.374Z,18.2
2022-11-13T18:41:21.634Z,18.2
2022-11-13T18:51:21.391Z,18.2
2022-11-13T19:01:22.750Z,18.1
2022-11-13T19:11:21.390Z,18.1
2022-11-13T19:21:21.599Z,18.1
2022-11-13T19:31:21.581Z,18.1
2022-11-13T19:41:21.603Z,18.1
2022-11-13T19:51:21.583Z,19.6
2022-11-13T20:01:22.028Z,20.2
2022-11-13T20:11:21.604Z,19.8
2022-11-13T20:21:21.601Z,19.5
2022-11-13T20:31:21.583Z,19.2
2022-11-13T20:41:21.589Z,19
2022-11-13T20:51:21.574Z,18.9
2022-11-13T21:01:21.635Z,18.7
2022-11-13T21:11:21.578Z,18.6
2022-11-13T21:21:21.825Z,18.6
2022-11-13T21:31:21.557Z,18.5
2022-11-13T21:41:21.791Z,18.5
2022-11-13T21:51:21.561Z,18.5
2022-11-13T22:01:23.676Z,18.5
2022-11-13T22:11:21.559Z,18.5
2022-11-13T22:21:21.781Z,18.5
2022-11-13T22:31:21.818Z,18.4
2022-11-13T22:41:23.452Z,18.3
2022-11-13T22:51:21.853Z,18.3
2022-11-13T23:01:21.804Z,18.2
2022-11-13T23:11:21.749Z,18.2
2022-11-13T23:21:21.765Z,18.3
2022-11-13T23:31:21.743Z,18.1
2022-11-13T23:41:21.971Z,18.1
2022-11-13T23:51:21.747Z,18.1
